createdAt,value
2023-01-30T00:02:48.282Z,60.30
2023-01-30T00:05:51.458Z,60.39
2023-01-30T00:08:54.306Z,60.12
2023-01-30T00:11:57.270Z,60.10
2023-01-30T00:15:00.112Z,60.03
2023-01-30T00:18:03.223Z,60.22
2023-01-30T00:21:08.537Z,60.35
2023-01-30T00:24:11.476Z,61.38
2023-01-30T00:27:14.419Z,61.29
2023-01-30T00:30:17.799Z,60.84
2023-01-30T00:33:21.759Z,61.53
2023-01-30T00:36:27.413Z,62.57
2023-01-30T00:39:30.284Z,63.36
2023-01-30T00:42:52.077Z,63.67
2023-01-30T00:46:13.840Z,63.11
2023-01-30T00:49:17.176Z,64.19
2023-01-30T00:52:20.369Z,63.71
2023-01-30T00:55:23.259Z,64.06
2023-01-30T00:58:26.611Z,64.47
2023-01-30T01:01:29.430Z,64.32
2023-01-30T01:04:32.286Z,63.47
2023-01-30T01:07:35.435Z,63.60
2023-01-30T01:10:38.668Z,63.31
2023-01-30T01:13:41.501Z,64.15
2023-01-30T01:16:44.304Z,64.21
2023-01-30T01:19:47.329Z,64.08
2023-01-30T01:22:54.548Z,64.29
2023-01-30T01:26:01.859Z,62.71
2023-01-30T01:29:05.831Z,63.09
2023-01-30T01:32:08.761Z,63.29
2023-01-30T01:35:11.853Z,63.07
2023-01-30T01:38:14.633Z,63.11
2023-01-30T01:41:18.556Z,62.50
2023-01-30T01:44:25.013Z,62.81
2023-01-30T01:47:28.628Z,62.90
2023-01-30T01:50:42.898Z,62.17
2023-01-30T01:54:03.525Z,62.51
2023-01-30T01:57:14.490Z,62.34
2023-01-30T02:00:20.705Z,62.01
2023-01-30T02:03:26.250Z,62.36
2023-01-30T02:06:30.175Z,61.83
2023-01-30T02:09:33.061Z,61.55
2023-01-30T02:12:38.265Z,60.56
2023-01-30T02:15:41.380Z,61.37
2023-01-30T02:18:45.593Z,60.45
2023-01-30T02:22:32.697Z,61.24
2023-01-30T02:25:55.658Z,61.76
2023-01-30T02:29:04.867Z,61.97
2023-01-30T02:32:19.798Z,63.13
2023-01-30T02:35:42.240Z,63.46
2023-01-30T02:38:56.805Z,64.01
2023-01-30T02:42:21.852Z,64.53
2023-01-30T02:45:37.062Z,64.29
2023-01-30T02:48:46.605Z,65.28
2023-01-30T02:51:51.551Z,65.95
2023-01-30T02:54:54.195Z,65.30
2023-01-30T02:57:58.433Z,65.22
2023-01-30T03:01:21.084Z,65.71
2023-01-30T03:05:15.133Z,65.53
2023-01-30T03:08:35.010Z,65.35
2023-01-30T03:12:08.866Z,65.07
2023-01-30T03:15:22.027Z,64.45
2023-01-30T03:18:25.662Z,64.52
2023-01-30T03:21:28.176Z,64.45
2023-01-30T03:24:31.544Z,64.67
2023-01-30T03:27:35.580Z,64.22
2023-01-30T03:30:38.856Z,63.73
2023-01-30T03:33:42.268Z,64.15
2023-01-30T03:36:47.275Z,64.25
2023-01-30T03:39:51.157Z,65.55
2023-01-30T03:42:54.318Z,65.49
2023-01-30T03:45:57.018Z,65.69
2023-01-30T03:49:00.249Z,66.25
2023-01-30T03:52:02.943Z,66.90
2023-01-30T03:55:06.647Z,66.96
2023-01-30T03:58:09.481Z,66.92
2023-01-30T04:01:12.712Z,67.16
2023-01-30T04:04:16.713Z,67.53
2023-01-30T04:07:20.278Z,66.93
2023-01-30T04:10:26.094Z,66.80
2023-01-30T04:13:29.016Z,66.70
2023-01-30T04:16:32.566Z,66.41
2023-01-30T04:19:40.627Z,67.03
2023-01-30T04:22:43.554Z,67.80
2023-01-30T04:25:47.064Z,67.31
2023-01-30T04:28:51.162Z,67.51
2023-01-30T04:31:54.096Z,68.73
2023-01-30T04:34:57.244Z,68.50
2023-01-30T04:38:00.087Z,68.71
2023-01-30T04:41:03.544Z,69.23
2023-01-30T04:44:07.397Z,70.08
2023-01-30T04:47:11.417Z,70.21
2023-01-30T04:50:14.383Z,69.77
2023-01-30T04:53:18.554Z,70.77
2023-01-30T04:56:21.459Z,71.36
2023-01-30T04:59:24.795Z,70.58
2023-01-30T05:02:27.685Z,70.91
2023-01-30T05:05:30.684Z,70.66
2023-01-30T05:08:33.498Z,70.88
2023-01-30T05:11:36.542Z,71.61
2023-01-30T05:14:41.388Z,71.64
2023-01-30T05:17:44.805Z,70.75
2023-01-30T05:20:48.013Z,71.07
2023-01-30T05:23:52.848Z,71.93
2023-01-30T05:26:55.673Z,71.60
2023-01-30T05:29:58.646Z,72.02
2023-01-30T05:33:02.484Z,71.38
2023-01-30T05:36:06.217Z,71.50
2023-01-30T05:39:09.756Z,70.95
2023-01-30T05:42:12.608Z,71.04
2023-01-30T05:45:16.767Z,69.33
2023-01-30T05:48:19.949Z,70.04
2023-01-30T05:51:26.314Z,71.19
2023-01-30T05:54:29.109Z,70.71
2023-01-30T05:57:31.896Z,70.24
2023-01-30T06:00:34.677Z,70.85
2023-01-30T06:03:38.601Z,70.67
2023-01-30T06:06:41.145Z,70.02
2023-01-30T06:09:44.229Z,70.97
2023-01-30T06:12:46.828Z,70.07
2023-01-30T06:15:50.067Z,70.49
2023-01-30T06:18:52.743Z,70.91
2023-01-30T06:21:58.315Z,70.35
2023-01-30T06:25:00.847Z,70.29
2023-01-30T06:28:04.198Z,69.20
2023-01-30T06:31:08.181Z,69.66
2023-01-30T06:34:12.076Z,69.18
2023-01-30T06:37:14.662Z,70.02
2023-01-30T06:40:18.129Z,70.18
2023-01-30T06:43:20.942Z,69.18
2023-01-30T06:46:24.148Z,69.53
2023-01-30T06:49:27.441Z,68.64
2023-01-30T06:52:30.601Z,69.01
2023-01-30T06:55:35.574Z,69.78
2023-01-30T06:58:38.858Z,68.19
2023-01-30T07:01:41.576Z,68.62
2023-01-30T07:04:44.773Z,68.87
2023-01-30T07:07:47.568Z,68.79
2023-01-30T07:10:50.763Z,68.37
2023-01-30T07:13:53.292Z,67.78
2023-01-30T07:16:56.461Z,68.05
2023-01-30T07:19:59.437Z,66.46
2023-01-30T07:23:04.300Z,66.79
2023-01-30T07:26:06.946Z,66.91
2023-01-30T07:29:10.446Z,65.96
2023-01-30T07:32:17.053Z,64.84
2023-01-30T07:35:21.804Z,64.85
2023-01-30T07:38:24.693Z,65.66
2023-01-30T07:41:28.096Z,66.09
2023-01-30T07:44:30.744Z,66.17
2023-01-30T07:47:33.966Z,66.04
2023-01-30T07:50:36.780Z,66.49
2023-01-30T07:53:40.113Z,66.12
2023-01-30T07:56:42.744Z,65.89
2023-01-30T07:59:45.962Z,65.61
2023-01-30T08:02:48.599Z,64.91
2023-01-30T08:05:53.707Z,65.24
2023-01-30T08:08:58.574Z,65.17
2023-01-30T08:12:01.823Z,64.37
2023-01-30T08:15:04.923Z,64.20
2023-01-30T08:18:08.167Z,64.07
2023-01-30T08:21:11.716Z,64.31
2023-01-30T08:24:15.298Z,64.17
2023-01-30T08:27:17.972Z,63.53
2023-01-30T08:30:22.638Z,63.13
2023-01-30T08:33:26.246Z,61.69
2023-01-30T08:36:29.385Z,61.77
2023-01-30T08:39:32.986Z,60.80
2023-01-30T08:42:36.659Z,61.22
2023-01-30T08:45:39.608Z,60.35
2023-01-30T08:48:50.029Z,60.14
2023-01-30T08:51:52.928Z,59.49
2023-01-30T08:54:56.226Z,59.23
2023-01-30T08:57:59.177Z,59.32
2023-01-30T09:01:05.400Z,58.69
2023-01-30T09:04:07.975Z,59.40
2023-01-30T09:07:11.161Z,61.24
2023-01-30T09:10:14.070Z,62.26
2023-01-30T09:13:17.643Z,63.04
2023-01-30T09:16:20.245Z,63.06
2023-01-30T09:19:28.236Z,63.50
2023-01-30T09:22:30.864Z,63.88
2023-01-30T09:25:34.272Z,63.59
2023-01-30T09:28:37.175Z,63.66
2023-01-30T09:31:41.562Z,63.64
2023-01-30T09:34:45.351Z,63.46
2023-01-30T09:37:53.395Z,63.40
2023-01-30T09:40:59.024Z,63.70
2023-01-30T09:44:23.890Z,64.25
2023-01-30T09:48:01.701Z,64.33
2023-01-30T09:51:11.870Z,65.03
2023-01-30T09:54:21.981Z,65.67
2023-01-30T09:57:26.182Z,66.02
2023-01-30T10:00:32.436Z,65.73
2023-01-30T10:03:42.494Z,66.10
2023-01-30T10:06:59.303Z,66.45
2023-01-30T10:10:20.973Z,66.27
2023-01-30T10:13:37.426Z,66.47
2023-01-30T10:16:55.926Z,66.31
2023-01-30T10:19:58.598Z,66.75
2023-01-30T10:23:17.363Z,66.03
2023-01-30T10:26:23.398Z,63.44
2023-01-30T10:29:33.305Z,63.00
2023-01-30T10:32:44.986Z,60.86
2023-01-30T10:36:02.685Z,60.70
2023-01-30T10:39:18.581Z,61.93
2023-01-30T10:42:29.654Z,61.67
2023-01-30T10:45:50.941Z,62.21
2023-01-30T10:49:11.521Z,63.41
2023-01-30T10:52:49.773Z,63.83
2023-01-30T10:56:00.099Z,64.10
2023-01-30T10:59:44.644Z,64.35
2023-01-30T11:03:10.610Z,64.70
2023-01-30T11:06:23.911Z,65.75
2023-01-30T11:09:47.232Z,65.39
2023-01-30T11:12:58.238Z,65.79
2023-01-30T11:16:08.057Z,65.51
2023-01-30T11:19:21.224Z,65.46
2023-01-30T11:22:27.152Z,65.66
2023-01-30T11:25:29.948Z,65.87
2023-01-30T11:28:51.315Z,65.55
2023-01-30T11:31:54.874Z,65.16
2023-01-30T11:35:06.623Z,65.75
2023-01-30T11:38:24.601Z,65.82
2023-01-30T11:41:28.278Z,65.95
2023-01-30T11:44:37.692Z,64.54
2023-01-30T11:48:00.676Z,64.69
2023-01-30T11:51:11.131Z,63.86
2023-01-30T11:54:19.611Z,64.09
2023-01-30T11:57:23.527Z,65.05
2023-01-30T12:00:37.368Z,65.26
2023-01-30T12:03:47.863Z,65.02
2023-01-30T12:07:06.318Z,65.34
2023-01-30T12:10:30.228Z,66.06
2023-01-30T12:13:38.268Z,64.81
2023-01-30T12:16:57.887Z,64.33
2023-01-30T12:20:03.732Z,64.85
2023-01-30T12:23:13.103Z,65.21
2023-01-30T12:26:18.786Z,65.47
2023-01-30T12:29:41.908Z,66.17
2023-01-30T12:32:45.340Z,67.17
2023-01-30T12:36:17.168Z,67.33
2023-01-30T12:39:25.240Z,66.63
2023-01-30T12:42:58.400Z,67.02
2023-01-30T12:46:27.071Z,67.51
2023-01-30T12:49:45.259Z,68.48
2023-01-30T12:53:00.266Z,69.08
2023-01-30T12:56:09.250Z,68.58
2023-01-30T12:59:24.525Z,69.07
2023-01-30T13:02:45.343Z,68.42
2023-01-30T13:05:56.236Z,68.76
2023-01-30T13:09:17.942Z,68.94
2023-01-30T13:12:48.617Z,69.18
2023-01-30T13:16:32.063Z,68.83
2023-01-30T13:19:51.211Z,68.36
2023-01-30T13:23:04.727Z,68.25
2023-01-30T13:26:11.814Z,67.96
2023-01-30T13:29:20.689Z,68.16
2023-01-30T13:32:48.481Z,67.77
2023-01-30T13:36:02.591Z,67.87
2023-01-30T13:39:25.779Z,67.64
2023-01-30T13:42:49.864Z,66.83
2023-01-30T13:45:56.934Z,67.11
2023-01-30T13:49:44.461Z,67.22
2023-01-30T13:53:00.920Z,66.66
2023-01-30T13:56:32.730Z,66.33
2023-01-30T13:59:57.698Z,66.29
2023-01-30T14:03:03.759Z,66.12
2023-01-30T14:06:26.811Z,65.66
2023-01-30T14:09:33.601Z,64.67
2023-01-30T14:12:46.574Z,64.39
2023-01-30T14:16:04.649Z,64.80
2023-01-30T14:19:42.273Z,63.87
2023-01-30T14:22:47.677Z,63.73
2023-01-30T14:25:53.371Z,64.12
2023-01-30T14:28:56.243Z,64.40
2023-01-30T14:31:59.412Z,64.83
2023-01-30T14:35:01.952Z,65.24
2023-01-30T14:38:13.071Z,65.93
2023-01-30T14:41:25.560Z,66.04
2023-01-30T14:44:59.956Z,66.71
2023-01-30T14:48:37.728Z,67.01
2023-01-30T14:51:42.676Z,68.18
2023-01-30T14:54:50.359Z,69.17
2023-01-30T14:58:02.818Z,68.87
2023-01-30T15:01:05.616Z,69.29
2023-01-30T15:04:16.466Z,70.27
2023-01-30T15:07:24.853Z,70.46
2023-01-30T15:10:49.938Z,70.54
2023-01-30T15:14:01.522Z,71.32
2023-01-30T15:17:37.821Z,71.30
2023-01-30T15:21:18.200Z,70.29
2023-01-30T15:24:51.586Z,71.47
2023-01-30T15:28:08.084Z,69.99
2023-01-30T15:31:15.317Z,70.45
2023-01-30T15:34:24.282Z,69.90
2023-01-30T15:37:30.477Z,70.47
2023-01-30T15:40:33.438Z,70.78
2023-01-30T15:44:21.091Z,69.39
2023-01-30T15:47:45.616Z,69.72
2023-01-30T15:50:53.881Z,71.04
2023-01-30T15:53:58.252Z,70.71
2023-01-30T15:57:02.749Z,71.43
2023-01-30T16:00:08.564Z,72.55
2023-01-30T16:03:20.535Z,73.34
2023-01-30T16:06:35.708Z,74.36
2023-01-30T16:09:38.517Z,75.35
2023-01-30T16:12:42.114Z,75.62
2023-01-30T16:15:54.539Z,75.93
2023-01-30T16:19:02.137Z,77.08
2023-01-30T16:22:15.539Z,77.63
2023-01-30T16:25:22.692Z,77.57
2023-01-30T16:28:28.442Z,77.68
2023-01-30T16:31:33.614Z,78.34
2023-01-30T16:34:38.454Z,78.79
2023-01-30T16:37:41.513Z,79.28
2023-01-30T16:40:46.438Z,79.37
2023-01-30T16:44:08.277Z,79.46
2023-01-30T16:47:28.952Z,79.99
2023-01-30T16:50:31.882Z,80.74
2023-01-30T16:53:35.087Z,81.20
2023-01-30T16:56:38.231Z,81.71
2023-01-30T16:59:41.355Z,82.47
2023-01-30T17:02:57.466Z,83.56
2023-01-30T17:06:07.468Z,82.80
2023-01-30T17:09:41.886Z,82.70
2023-01-30T17:12:49.634Z,83.08
2023-01-30T17:15:52.653Z,83.13
2023-01-30T17:18:58.249Z,83.31
2023-01-30T17:22:04.642Z,82.53
2023-01-30T17:25:32.915Z,83.24
2023-01-30T17:28:40.417Z,83.34
2023-01-30T17:31:49.963Z,82.15
2023-01-30T17:34:52.907Z,82.65
2023-01-30T17:38:04.891Z,83.10
2023-01-30T17:41:18.460Z,83.12
2023-01-30T17:44:21.493Z,83.04
2023-01-30T17:47:24.457Z,82.35
2023-01-30T17:50:28.583Z,81.12
2023-01-30T17:53:32.517Z,80.97
2023-01-30T17:56:38.442Z,80.67
2023-01-30T17:59:41.695Z,80.79
2023-01-30T18:02:44.883Z,80.55
2023-01-30T18:05:48.003Z,80.14
2023-01-30T18:08:51.695Z,79.42
2023-01-30T18:11:54.692Z,78.92
2023-01-30T18:14:58.688Z,78.32
2023-01-30T18:18:01.899Z,78.65
2023-01-30T18:21:06.245Z,78.28
2023-01-30T18:24:09.724Z,78.24
2023-01-30T18:27:13.397Z,78.04
2023-01-30T18:30:18.232Z,78.01
2023-01-30T18:33:21.439Z,76.72
2023-01-30T18:36:24.493Z,77.30
2023-01-30T18:39:27.438Z,75.94
2023-01-30T18:42:30.474Z,75.20
2023-01-30T18:45:36.020Z,75.88
2023-01-30T18:48:39.054Z,76.19
2023-01-30T18:51:42.062Z,75.83
2023-01-30T18:54:44.934Z,76.16
2023-01-30T18:57:48.328Z,76.11
2023-01-30T19:00:51.207Z,76.27
2023-01-30T19:03:56.831Z,76.19
2023-01-30T19:06:59.725Z,76.02
2023-01-30T19:10:03.698Z,75.96
2023-01-30T19:13:25.401Z,75.63
2023-01-30T19:16:30.952Z,75.65
2023-01-30T19:19:33.880Z,75.21
2023-01-30T19:22:37.143Z,75.26
2023-01-30T19:25:40.024Z,74.74
2023-01-30T19:28:44.755Z,74.55
2023-01-30T19:31:47.915Z,75.00
2023-01-30T19:34:51.144Z,75.52
2023-01-30T19:37:57.525Z,75.37
2023-01-30T19:41:00.572Z,74.39
2023-01-30T19:44:06.898Z,73.94
2023-01-30T19:47:10.155Z,74.16
2023-01-30T19:50:13.480Z,73.75
2023-01-30T19:53:16.475Z,74.03
2023-01-30T19:56:21.859Z,73.81
2023-01-30T19:59:24.787Z,73.58
2023-01-30T20:02:30.008Z,73.56
2023-01-30T20:05:33.555Z,74.00
2023-01-30T20:08:37.356Z,73.90
2023-01-30T20:11:43.641Z,73.94
2023-01-30T20:14:46.389Z,74.23
2023-01-30T20:17:49.611Z,73.90
2023-01-30T20:20:52.594Z,73.43
2023-01-30T20:23:56.718Z,72.36
2023-01-30T20:26:59.690Z,71.91
2023-01-30T20:30:03.006Z,71.66
2023-01-30T20:33:06.003Z,71.92
2023-01-30T20:36:12.033Z,72.25
2023-01-30T20:39:16.951Z,70.72
2023-01-30T20:42:20.067Z,70.56
2023-01-30T20:45:22.631Z,70.41
2023-01-30T20:48:25.739Z,70.20
2023-01-30T20:51:30.694Z,70.12
2023-01-30T20:54:37.716Z,69.87
2023-01-30T20:57:43.158Z,70.05
2023-01-30T21:00:46.445Z,69.98
2023-01-30T21:03:51.436Z,70.33
2023-01-30T21:06:54.778Z,70.58
2023-01-30T21:09:57.364Z,70.08
2023-01-30T21:13:00.974Z,70.18
2023-01-30T21:16:08.083Z,70.17
2023-01-30T21:19:15.189Z,69.63
2023-01-30T21:22:18.019Z,68.73
2023-01-30T21:25:22.921Z,68.86
2023-01-30T21:28:25.566Z,69.23
2023-01-30T21:31:30.851Z,68.59
2023-01-30T21:34:35.217Z,69.80
2023-01-30T21:37:57.913Z,70.86
2023-01-30T21:41:19.076Z,72.19
2023-01-30T21:44:30.932Z,72.87
2023-01-30T21:47:33.683Z,72.47
2023-01-30T21:50:36.880Z,72.91
2023-01-30T21:53:39.955Z,72.43
2023-01-30T21:56:43.823Z,73.30
2023-01-30T21:59:46.389Z,73.77
2023-01-30T22:02:49.995Z,72.27
2023-01-30T22:05:52.876Z,72.46
2023-01-30T22:08:56.848Z,72.90
2023-01-30T22:11:59.880Z,72.29
2023-01-30T22:15:02.836Z,71.35
2023-01-30T22:18:05.818Z,71.31
2023-01-30T22:21:12.288Z,71.70
2023-01-30T22:24:15.368Z,71.73
2023-01-30T22:27:18.181Z,71.81
2023-01-30T22:30:21.216Z,71.27
2023-01-30T22:33:24.044Z,71.05
2023-01-30T22:36:29.278Z,70.95
2023-01-30T22:39:32.129Z,71.23
2023-01-30T22:42:35.243Z,70.37
2023-01-30T22:45:38.272Z,70.54
2023-01-30T22:48:42.127Z,70.37
2023-01-30T22:51:44.992Z,70.73
2023-01-30T22:54:47.826Z,69.96
2023-01-30T22:57:50.637Z,68.28
2023-01-30T23:00:53.475Z,68.22
2023-01-30T23:03:59.856Z,68.60
2023-01-30T23:07:02.795Z,68.67
2023-01-30T23:10:06.046Z,69.21
2023-01-30T23:13:08.992Z,68.05
2023-01-30T23:16:13.359Z,68.47
2023-01-30T23:19:16.157Z,67.85
2023-01-30T23:22:19.066Z,67.30
2023-01-30T23:25:22.244Z,68.32
2023-01-30T23:28:25.178Z,67.24
2023-01-30T23:31:29.115Z,66.13
2023-01-30T23:34:31.932Z,66.38
2023-01-30T23:38:06.920Z,66.63
2023-01-30T23:41:10.576Z,66.66
2023-01-30T23:44:13.440Z,67.35
2023-01-30T23:47:16.559Z,68.36
2023-01-30T23:50:19.788Z,69.73
2023-01-30T23:53:22.704Z,70.78
2023-01-30T23:56:27.912Z,71.97
2023-01-30T23:59:31.002Z,72.96
